Time;durP1;ratioP1;P1;durP2;ratioP2;P2;SDS_P1;SDS_P2;PMS_P1;PMS_P2;Temp;Humidity;BMP_temperature;BMP_pressure;BME280_temperature;BME280_humidity;BME280_pressure;Samples;Min_cycle;Max_cycle;Signal;HPM_P1;HPM_P2
2023/08/12 04:31:08;;;;;;;0.00;0.00;;;18.90;88.60;;;;;;5505919;23;20051;-77
2023/08/12 04:33:34;;;;;;;0.08;0.00;;;18.90;88.40;;;;;;4906354;29;20111;-77
2023/08/12 04:35:59;;;;;;;0.08;0.08;;;19.00;88.40;;;;;;4914091;29;20032;-77
2023/08/12 04:38:25;;;;;;;0.10;0.10;;;18.90;88.30;;;;;;4916848;29;20016;-77
2023/08/12 04:40:53;;;;;;;0.10;0.10;;;18.90;88.20;;;;;;4902401;29;20131;-77
2023/08/12 04:43:19;;;;;;;0.00;0.00;;;18.80;88.20;;;;;;4906006;29;20084;-78
2023/08/12 04:45:48;;;;;;;0.00;0.00;;;18.80;88.10;;;;;;4922541;29;20566;-77
2023/08/12 04:48:14;;;;;;;0.00;0.00;;;18.80;88.10;;;;;;4922158;29;20028;-78
2023/08/12 04:50:41;;;;;;;0.10;0.10;;;18.80;88.00;;;;;;4922348;29;20083;-77
2023/08/12 04:53:07;;;;;;;0.00;0.00;;;18.70;87.90;;;;;;4918293;29;20017;-77
2023/08/12 04:55:34;;;;;;;0.00;0.00;;;18.70;88.10;;;;;;4903444;29;20039;-77
2023/08/12 04:58:01;;;;;;;0.00;0.00;;;18.60;88.10;;;;;;4903316;29;20058;-77
2023/08/12 05:00:27;;;;;;;0.10;0.10;;;18.60;88.00;;;;;;4887176;29;20036;-77
2023/08/12 05:02:53;;;;;;;0.03;0.03;;;18.50;88.10;;;;;;4905371;29;20025;-77
2023/08/12 05:05:19;;;;;;;0.10;0.00;;;18.50;88.00;;;;;;4922352;29;20034;-77
2023/08/12 05:07:48;;;;;;;0.00;0.00;;;18.50;87.90;;;;;;4922180;29;20021;-77
2023/08/12 05:10:17;;;;;;;0.00;0.00;;;18.40;88.00;;;;;;4921973;29;20024;-77
2023/08/12 05:12:44;;;;;;;0.00;0.00;;;18.30;88.00;;;;;;4922309;29;20024;-77
2023/08/12 05:15:10;;;;;;;0.10;0.08;;;18.30;88.00;;;;;;4922204;29;20032;-77
2023/08/12 05:17:36;;;;;;;0.10;0.08;;;18.30;87.90;;;;;;4922112;29;20031;-77
2023/08/12 05:20:03;;;;;;;0.00;0.00;;;18.30;88.00;;;;;;4922063;29;20032;-77
2023/08/12 05:22:28;;;;;;;0.00;0.00;;;18.30;87.90;;;;;;4921957;29;20383;-77
2023/08/12 05:24:54;;;;;;;0.10;0.10;;;18.30;87.80;;;;;;4922001;29;20032;-77
2023/08/12 05:27:19;;;;;;;0.00;0.00;;;18.30;87.70;;;;;;4921904;29;20482;-77
2023/08/12 05:29:45;;;;;;;0.10;0.10;;;18.30;87.90;;;;;;4921933;29;20107;-77
2023/08/12 05:32:11;;;;;;;0.00;0.00;;;18.30;87.60;;;;;;4921808;29;20040;-77
2023/08/12 05:34:36;;;;;;;0.17;0.03;;;18.40;87.50;;;;;;4904367;29;20036;-77
2023/08/12 05:37:02;;;;;;;0.10;0.10;;;18.40;87.40;;;;;;4921802;29;20468;-77
2023/08/12 05:39:27;;;;;;;0.00;0.00;;;18.30;86.90;;;;;;4922099;29;20038;-77
2023/08/12 05:41:53;;;;;;;0.10;0.10;;;18.30;86.70;;;;;;4921707;29;20028;-77
2023/08/12 05:44:19;;;;;;;0.10;0.10;;;18.30;86.70;;;;;;4921747;29;20107;-77
2023/08/12 05:46:44;;;;;;;0.10;0.10;;;18.30;86.50;;;;;;4921657;29;20559;-77
2023/08/12 05:49:10;;;;;;;0.15;0.10;;;18.30;86.80;;;;;;4921640;29;20095;-77
2023/08/12 05:51:36;;;;;;;0.05;0.05;;;18.30;86.60;;;;;;4921504;29;20024;-77
2023/08/12 05:54:01;;;;;;;0.10;0.10;;;18.20;86.10;;;;;;4921405;29;20063;-77
2023/08/12 05:56:27;;;;;;;0.00;0.00;;;18.20;86.50;;;;;;4921516;29;20028;-77
2023/08/12 05:58:52;;;;;;;0.05;0.05;;;18.20;86.00;;;;;;4921654;29;20047;-77
2023/08/12 06:01:19;;;;;;;0.10;0.10;;;18.20;86.30;;;;;;4889472;29;20037;-78
2023/08/12 06:03:44;;;;;;;0.10;0.10;;;18.10;85.90;;;;;;4885312;29;20032;-77
2023/08/12 06:06:10;;;;;;;0.10;0.10;;;18.00;85.70;;;;;;4902692;29;20024;-77
2023/08/12 06:08:36;;;;;;;0.00;0.00;;;18.00;85.80;;;;;;4902477;29;20029;-77
2023/08/12 06:11:01;;;;;;;0.10;0.10;;;18.00;86.10;;;;;;4902509;29;20502;-77
2023/08/12 06:13:27;;;;;;;0.17;0.10;;;18.00;86.10;;;;;;4902302;29;20037;-77
2023/08/12 06:15:53;;;;;;;0.10;0.10;;;17.90;85.90;;;;;;4885464;29;20107;-77
2023/08/12 06:18:18;;;;;;;0.05;0.05;;;18.00;86.00;;;;;;4902615;29;20087;-77
2023/08/12 06:20:44;;;;;;;0.00;0.00;;;18.00;86.00;;;;;;4902194;29;20080;-78
2023/08/12 06:23:09;;;;;;;0.08;0.08;;;18.00;86.30;;;;;;4901841;29;20508;-77
2023/08/12 06:25:36;;;;;;;0.10;0.10;;;18.00;86.50;;;;;;4885470;29;20564;-77
2023/08/12 06:28:04;;;;;;;0.10;0.10;;;18.10;86.30;;;;;;4885473;29;20033;-77
2023/08/12 06:30:30;;;;;;;0.00;0.00;;;18.30;86.20;;;;;;4885118;29;20068;-77
2023/08/12 06:32:56;;;;;;;0.10;0.10;;;18.40;85.90;;;;;;4904614;29;20384;-77
2023/08/12 06:35:21;;;;;;;0.10;0.10;;;18.50;85.70;;;;;;4921157;29;20395;-77
2023/08/12 06:37:47;;;;;;;0.10;0.10;;;18.70;85.50;;;;;;4921048;29;20036;-77
2023/08/12 06:40:13;;;;;;;0.10;0.10;;;18.80;85.10;;;;;;4921066;29;20032;-77
2023/08/12 06:42:39;;;;;;;0.10;0.10;;;18.80;84.80;;;;;;4917668;29;20051;-77
2023/08/12 06:45:05;;;;;;;0.10;0.10;;;18.80;84.40;;;;;;4901823;29;20104;-77
2023/08/12 06:47:31;;;;;;;0.05;0.05;;;18.80;83.40;;;;;;4902391;29;20029;-77
2023/08/12 06:49:56;;;;;;;0.00;0.00;;;18.60;83.90;;;;;;4901918;29;20126;-77
2023/08/12 06:52:22;;;;;;;0.10;0.10;;;18.50;84.20;;;;;;4902127;29;20071;-77
2023/08/12 06:54:48;;;;;;;0.10;0.10;;;18.50;83.60;;;;;;4902148;29;20088;-77
2023/08/12 06:57:13;;;;;;;0.10;0.10;;;18.70;84.60;;;;;;4902169;29;20119;-77
2023/08/12 06:59:39;;;;;;;0.10;0.10;;;18.80;84.30;;;;;;4901563;29;20024;-78
2023/08/12 07:02:06;;;;;;;0.00;0.00;;;18.90;84.00;;;;;;4898707;29;20036;-77
2023/08/12 07:04:32;;;;;;;0.10;0.10;;;18.80;82.20;;;;;;4916753;29;20028;-77
2023/08/12 07:06:59;;;;;;;0.10;0.10;;;18.60;82.70;;;;;;4920809;29;20039;-77
2023/08/12 07:09:25;;;;;;;0.10;0.10;;;18.50;82.70;;;;;;4920888;29;20031;-77
2023/08/12 07:11:50;;;;;;;0.10;0.10;;;18.40;82.90;;;;;;4920777;29;20430;-77
2023/08/12 07:14:16;;;;;;;0.10;0.10;;;18.60;82.90;;;;;;4920875;29;20029;-77
2023/08/12 07:16:41;;;;;;;0.10;0.10;;;18.80;82.80;;;;;;4920943;29;20028;-77
2023/08/12 07:19:07;;;;;;;0.17;0.10;;;18.80;82.00;;;;;;4920631;29;20024;-78
2023/08/12 07:21:33;;;;;;;0.10;0.10;;;19.10;81.80;;;;;;4920553;29;20562;-77
2023/08/12 07:23:58;;;;;;;0.30;0.30;;;19.60;80.30;;;;;;4920750;29;20036;-77
2023/08/12 07:26:24;;;;;;;0.20;0.20;;;21.50;76.60;;;;;;4920779;29;20452;-78
2023/08/12 07:28:49;;;;;;;0.10;0.10;;;23.80;68.90;;;;;;4920626;29;20040;-78
2023/08/12 07:31:15;;;;;;;0.10;0.10;;;25.00;63.70;;;;;;4903525;29;20044;-78
2023/08/12 07:33:40;;;;;;;0.10;0.10;;;24.70;60.50;;;;;;4905833;29;20036;-78
2023/08/12 07:36:06;;;;;;;0.10;0.10;;;23.80;62.30;;;;;;4924151;29;20479;-78
2023/08/12 07:38:32;;;;;;;0.10;0.10;;;22.90;65.60;;;;;;4923895;29;20059;-78
2023/08/12 07:40:57;;;;;;;0.10;0.10;;;22.30;68.30;;;;;;4923965;29;20024;-77
2023/08/12 07:43:23;;;;;;;0.10;0.10;;;21.90;69.60;;;;;;4923854;29;20028;-77
2023/08/12 07:45:55;;;;;;;0.10;0.10;;;21.50;71.00;;;;;;4923936;29;20028;-77
2023/08/12 07:48:21;;;;;;;0.30;0.30;;;21.30;72.20;;;;;;4923603;29;20028;-77
2023/08/12 07:50:48;;;;;;;0.30;0.30;;;21.80;70.80;;;;;;4923679;29;20378;-78
2023/08/12 07:53:15;;;;;;;0.28;0.28;;;23.20;67.80;;;;;;4906636;29;20510;-78
2023/08/12 07:55:44;;;;;;;0.10;0.10;;;24.00;63.90;;;;;;4923741;29;20028;-78
2023/08/12 07:58:10;;;;;;;0.00;0.00;;;24.10;63.60;;;;;;4923664;29;20039;-78
2023/08/12 08:00:35;;;;;;;0.10;0.10;;;23.50;63.40;;;;;;4914103;29;20032;-77
2023/08/12 08:03:01;;;;;;;0.10;0.10;;;23.80;63.20;;;;;;4907684;29;20063;-77
2023/08/12 08:05:27;;;;;;;0.05;0.05;;;24.80;62.10;;;;;;4906332;29;20424;-78
2023/08/12 08:07:52;;;;;;;0.10;0.10;;;24.60;61.40;;;;;;4923361;29;20032;-78
2023/08/12 08:10:18;;;;;;;0.20;0.20;;;24.90;60.90;;;;;;4906140;29;20055;-78
2023/08/12 08:12:43;;;;;;;0.22;0.22;;;26.40;57.20;;;;;;4923472;29;20431;-78
2023/08/12 08:15:09;;;;;;;0.30;0.30;;;28.40;54.10;;;;;;4923440;29;20064;-79
2023/08/12 08:17:35;;;;;;;0.45;0.45;;;29.60;50.30;;;;;;4906158;29;20176;-79
2023/08/12 08:20:00;;;;;;;0.00;0.00;;;30.30;45.60;;;;;;4923087;29;20024;-79
2023/08/12 08:22:26;;;;;;;0.20;0.20;;;30.00;46.70;;;;;;4923062;29;20031;-79
2023/08/12 08:24:52;;;;;;;0.10;0.10;;;29.80;48.60;;;;;;4906473;29;20503;-79
2023/08/12 08:27:17;;;;;;;0.40;0.40;;;29.10;49.80;;;;;;4923030;29;20028;-79
2023/08/12 08:29:43;;;;;;;0.40;0.40;;;29.00;47.70;;;;;;4922893;29;20054;-79
2023/08/12 08:32:08;;;;;;;0.13;0.13;;;29.30;48.10;;;;;;4922762;29;20083;-79
2023/08/12 08:34:34;;;;;;;0.10;0.10;;;29.00;48.40;;;;;;4905650;29;20038;-79
2023/08/12 08:37:01;;;;;;;0.00;0.00;;;28.90;50.10;;;;;;4905987;29;20052;-79
2023/08/12 08:39:26;;;;;;;0.00;0.00;;;28.60;49.20;;;;;;4922798;29;20028;-79
2023/08/12 08:41:54;;;;;;;0.00;0.00;;;28.30;49.80;;;;;;4905717;29;20028;-78
2023/08/12 08:44:23;;;;;;;0.00;0.00;;;28.50;50.70;;;;;;4922236;29;20095;-78
2023/08/12 08:46:52;;;;;;;0.30;0.30;;;28.60;50.50;;;;;;4905579;29;20071;-78
2023/08/12 08:49:18;;;;;;;0.40;0.40;;;29.10;48.50;;;;;;4922506;29;20099;-78
2023/08/12 08:51:45;;;;;;;0.40;0.40;;;30.00;47.40;;;;;;4913433;29;20016;-79
2023/08/12 08:54:12;;;;;;;0.50;0.50;;;31.10;45.80;;;;;;4902912;29;20021;-79
2023/08/12 08:56:38;;;;;;;0.50;0.50;;;31.80;45.00;;;;;;4903704;29;20162;-79
2023/08/12 08:59:04;;;;;;;0.50;0.50;;;32.20;43.70;;;;;;4886769;29;20057;-79
2023/08/12 09:01:31;;;;;;;0.50;0.50;;;32.30;43.00;;;;;;4903427;29;20061;-79
2023/08/12 09:03:58;;;;;;;0.40;0.40;;;31.90;43.80;;;;;;4913642;29;20036;-78
2023/08/12 09:06:29;;;;;;;0.50;0.50;;;31.70;42.20;;;;;;4922249;29;20024;-79
2023/08/12 09:08:55;;;;;;;0.47;0.47;;;30.70;43.70;;;;;;4922340;29;20058;-79
2023/08/12 09:11:21;;;;;;;0.10;0.10;;;30.50;45.70;;;;;;4922531;29;20032;-78
2023/08/12 09:13:48;;;;;;;0.55;0.55;;;28.90;46.60;;;;;;4922310;29;20032;-78
2023/08/12 09:16:14;;;;;;;0.30;0.30;;;28.70;46.50;;;;;;4922167;29;20028;-78
2023/08/12 09:18:42;;;;;;;0.20;0.20;;;28.70;48.00;;;;;;4922267;29;20028;-78
2023/08/12 09:21:09;;;;;;;0.20;0.20;;;28.80;49.00;;;;;;4922136;29;20127;-78
2023/08/12 09:23:39;;;;;;;0.15;0.15;;;28.60;49.50;;;;;;4921997;29;20038;-78
2023/08/12 09:26:14;;;;;;;0.15;0.15;;;28.90;48.60;;;;;;4922004;29;20032;-78
2023/08/12 09:28:39;;;;;;;0.10;0.10;;;29.30;47.60;;;;;;4922057;29;20024;-78
2023/08/12 09:31:05;;;;;;;0.20;0.20;;;29.90;45.60;;;;;;4921943;29;20055;-78
2023/08/12 09:33:30;;;;;;;0.40;0.40;;;28.90;47.60;;;;;;4921638;29;20402;-78
2023/08/12 09:35:59;;;;;;;0.75;0.75;;;30.30;47.10;;;;;;4921838;29;20071;-78
2023/08/12 09:38:26;;;;;;;0.00;0.00;;;30.60;44.90;;;;;;4921808;29;20111;-78
2023/08/12 09:40:53;;;;;;;0.10;0.10;;;29.60;45.20;;;;;;4921841;29;20028;-78
2023/08/12 09:43:23;;;;;;;2.88;2.78;;;29.80;45.70;;;;;;4921579;29;20032;-78
2023/08/12 09:45:49;;;;;;;0.00;0.00;;;30.20;45.10;;;;;;4904677;29;20024;-79
2023/08/12 09:48:17;;;;;;;0.00;0.00;;;30.30;44.80;;;;;;4904658;29;20028;-78
2023/08/12 09:50:42;;;;;;;0.22;0.22;;;29.80;46.50;;;;;;4921444;29;20106;-79
2023/08/12 09:53:09;;;;;;;0.30;0.30;;;29.30;45.50;;;;;;4921468;29;20403;-78
2023/08/12 09:55:37;;;;;;;0.50;0.50;;;29.50;46.60;;;;;;4903983;29;20042;-78
2023/08/12 09:58:07;;;;;;;0.00;0.00;;;29.80;46.20;;;;;;4921340;29;20028;-78
2023/08/12 10:00:33;;;;;;;0.10;0.10;;;29.30;47.30;;;;;;4895439;29;20043;-78
2023/08/12 10:03:00;;;;;;;0.00;0.00;;;28.60;47.40;;;;;;4905314;29;20028;-78
2023/08/12 10:05:31;;;;;;;0.00;0.00;;;28.10;48.50;;;;;;4921361;29;20039;-78
2023/08/12 10:07:58;;;;;;;0.10;0.10;;;27.90;47.70;;;;;;4921409;29;20483;-78
2023/08/12 10:10:25;;;;;;;0.00;0.00;;;28.60;48.50;;;;;;4921498;29;20619;-78
2023/08/12 10:12:51;;;;;;;0.00;0.00;;;28.10;48.70;;;;;;4921340;29;20032;-78
2023/08/12 10:15:17;;;;;;;0.73;0.73;;;27.50;50.50;;;;;;4921389;29;20084;-78
2023/08/12 10:17:44;;;;;;;0.00;0.00;;;27.90;50.90;;;;;;4898955;29;20557;-78
2023/08/12 10:20:13;;;;;;;0.00;0.00;;;28.40;49.20;;;;;;4899845;29;20021;-78
2023/08/12 10:22:40;;;;;;;0.10;0.10;;;27.80;48.80;;;;;;4902195;29;20028;-78
2023/08/12 10:25:08;;;;;;;0.00;0.00;;;27.90;48.40;;;;;;4902303;29;20025;-78
2023/08/12 10:27:34;;;;;;;0.00;0.00;;;27.40;48.90;;;;;;4902473;29;20453;-78
2023/08/12 10:30:06;;;;;;;0.00;0.00;;;26.90;49.20;;;;;;4902350;29;20096;-78
2023/08/12 10:32:32;;;;;;;0.10;0.10;;;26.70;51.20;;;;;;4885144;29;20071;-78
2023/08/12 10:34:58;;;;;;;0.10;0.10;;;26.80;49.90;;;;;;4920266;29;20045;-78
2023/08/12 10:37:25;;;;;;;0.08;0.08;;;27.00;49.80;;;;;;4921139;29;20197;-78
2023/08/12 10:39:55;;;;;;;0.00;0.00;;;26.50;49.50;;;;;;4920999;29;20024;-78
2023/08/12 10:42:43;;;;;;;0.10;0.10;;;26.40;50.70;;;;;;4903689;29;20039;-78
2023/08/12 10:45:10;;;;;;;0.00;0.00;;;26.00;51.50;;;;;;4921189;29;20016;-78
2023/08/12 10:47:48;;;;;;;0.10;0.10;;;25.30;51.60;;;;;;4921217;29;20036;-78
2023/08/12 10:50:21;;;;;;;0.00;0.00;;;25.60;53.80;;;;;;4905874;29;20052;-78
2023/08/12 10:52:50;;;;;;;0.10;0.10;;;25.80;52.00;;;;;;4901960;29;20503;-78
2023/08/12 10:55:18;;;;;;;0.10;0.10;;;25.90;51.90;;;;;;4901674;29;20039;-78
2023/08/12 10:57:45;;;;;;;0.00;0.00;;;25.80;52.80;;;;;;4902284;29;20032;-78
2023/08/12 11:00:13;;;;;;;0.00;0.00;;;25.80;53.50;;;;;;4901855;29;20017;-78
2023/08/12 11:02:40;;;;;;;0.00;0.00;;;25.80;51.40;;;;;;4902502;29;20028;-78
2023/08/12 11:05:11;;;;;;;0.00;0.00;;;25.50;53.20;;;;;;4920778;29;20028;-78
2023/08/12 11:07:50;;;;;;;0.10;0.10;;;25.10;53.10;;;;;;4921979;29;20028;-79
2023/08/12 11:10:21;;;;;;;0.10;0.10;;;25.50;54.50;;;;;;4924435;29;20107;-78
2023/08/12 11:12:56;;;;;;;0.10;0.10;;;25.90;54.00;;;;;;4924503;29;20032;-78
2023/08/12 11:15:36;;;;;;;0.00;0.00;;;25.80;54.40;;;;;;4907748;29;20039;-78
2023/08/12 11:18:10;;;;;;;0.00;0.00;;;25.90;52.10;;;;;;4924524;29;20391;-78
2023/08/12 11:20:36;;;;;;;0.10;0.10;;;25.80;52.60;;;;;;4924052;29;20035;-78
2023/08/12 11:23:06;;;;;;;0.00;0.00;;;25.80;54.60;;;;;;4924182;29;20474;-78
2023/08/12 11:25:33;;;;;;;0.10;0.10;;;25.60;51.70;;;;;;4924436;29;20024;-78
2023/08/12 11:27:58;;;;;;;0.10;0.10;;;25.60;53.70;;;;;;4924012;29;20075;-78
2023/08/12 11:30:25;;;;;;;0.10;0.10;;;25.90;55.00;;;;;;4924244;29;20052;-78
2023/08/12 11:32:52;;;;;;;0.00;0.00;;;25.70;51.70;;;;;;4924062;29;20059;-78
2023/08/12 11:35:18;;;;;;;0.00;0.00;;;25.30;50.30;;;;;;4923988;29;20063;-78
2023/08/12 11:37:46;;;;;;;0.00;0.00;;;24.90;52.10;;;;;;4923889;29;20127;-78
2023/08/12 11:40:14;;;;;;;0.00;0.00;;;24.90;53.60;;;;;;4906764;29;20032;-78
2023/08/12 11:42:42;;;;;;;0.08;0.08;;;24.80;53.50;;;;;;4923944;29;20029;-78
2023/08/12 11:45:08;;;;;;;0.00;0.00;;;24.70;53.90;;;;;;4923997;29;20033;-78
2023/08/12 11:47:35;;;;;;;0.00;0.00;;;24.70;54.30;;;;;;4923833;29;20025;-78
2023/08/12 11:50:05;;;;;;;0.03;0.03;;;24.60;55.30;;;;;;4906545;29;20547;-78
2023/08/12 11:52:31;;;;;;;0.10;0.10;;;24.50;55.00;;;;;;4923668;29;20054;-78
2023/08/12 11:54:57;;;;;;;0.00;0.00;;;24.60;54.90;;;;;;4923821;29;20071;-78
2023/08/12 11:57:23;;;;;;;0.00;0.00;;;24.40;54.80;;;;;;4923529;29;20028;-78
2023/08/12 11:59:50;;;;;;;0.00;0.00;;;24.40;55.70;;;;;;4920197;29;20488;-79
2023/08/12 12:02:16;;;;;;;0.03;0.03;;;24.60;57.40;;;;;;4904668;29;20523;-78
2023/08/12 12:04:45;;;;;;;0.00;0.00;;;24.60;56.30;;;;;;4920563;29;20099;-78
2023/08/12 12:07:18;;;;;;;0.00;0.00;;;24.50;56.40;;;;;;4906232;29;20028;-78
2023/08/12 12:09:44;;;;;;;0.10;0.10;;;24.60;56.80;;;;;;4923516;29;20137;-77
2023/08/12 12:12:10;;;;;;;0.10;0.10;;;24.40;55.90;;;;;;4923437;29;20491;-78
2023/08/12 12:14:36;;;;;;;0.10;0.10;;;24.30;55.90;;;;;;4906229;29;20024;-78
2023/08/12 12:17:10;;;;;;;0.00;0.00;;;24.70;55.60;;;;;;4923295;29;20076;-78
2023/08/12 12:19:36;;;;;;;0.10;0.10;;;24.60;54.90;;;;;;4922156;29;20031;-78
2023/08/12 12:22:03;;;;;;;0.08;0.08;;;24.80;54.20;;;;;;4923095;29;20024;-78
2023/08/12 12:24:30;;;;;;;0.10;0.10;;;24.70;54.20;;;;;;4906031;29;20383;-78
2023/08/12 12:26:56;;;;;;;0.05;0.05;;;24.70;54.50;;;;;;4922985;29;20028;-78
2023/08/12 12:29:22;;;;;;;0.10;0.10;;;25.30;56.30;;;;;;4923164;29;20028;-78
2023/08/12 12:31:48;;;;;;;0.10;0.10;;;25.60;53.20;;;;;;4923091;29;20044;-79
2023/08/12 12:34:14;;;;;;;0.05;0.05;;;25.60;51.10;;;;;;4905520;29;20039;-78
2023/08/12 12:36:40;;;;;;;0.00;0.00;;;25.70;53.00;;;;;;4922882;29;20044;-78
2023/08/12 12:39:06;;;;;;;0.10;0.10;;;25.70;51.30;;;;;;4922952;29;20028;-78
2023/08/12 12:41:33;;;;;;;0.00;0.00;;;25.50;50.20;;;;;;4922955;29;20028;-78
2023/08/12 12:44:02;;;;;;;0.08;0.08;;;25.40;51.10;;;;;;4905473;29;20033;-78
2023/08/12 12:46:30;;;;;;;0.03;0.03;;;25.30;50.40;;;;;;4887386;29;20160;-78
2023/08/12 12:48:55;;;;;;;0.00;0.00;;;25.20;51.50;;;;;;4887099;29;20048;-78
2023/08/12 12:51:21;;;;;;;0.00;0.00;;;25.30;51.60;;;;;;4903718;29;20028;-78
2023/08/12 12:53:47;;;;;;;0.03;0.03;;;25.20;52.20;;;;;;4903706;29;20029;-78
2023/08/12 12:56:13;;;;;;;0.00;0.00;;;24.90;52.60;;;;;;4886765;29;20048;-78
2023/08/12 12:58:39;;;;;;;0.00;0.00;;;24.70;52.80;;;;;;4903315;29;20460;-78
2023/08/12 13:01:05;;;;;;;0.00;0.00;;;24.50;53.10;;;;;;4903453;29;20028;-78
2023/08/12 13:03:31;;;;;;;0.00;0.00;;;24.50;52.40;;;;;;4910394;29;20039;-78
2023/08/12 13:05:57;;;;;;;0.00;0.00;;;24.80;53.20;;;;;;4905170;29;20031;-78
2023/08/12 13:08:23;;;;;;;0.00;0.00;;;25.00;52.20;;;;;;4922355;29;20024;-78
2023/08/12 13:10:49;;;;;;;0.00;0.00;;;25.20;51.90;;;;;;4922427;29;20170;-78
2023/08/12 13:13:16;;;;;;;0.00;0.00;;;25.40;51.60;;;;;;4922149;29;20034;-78
2023/08/12 13:15:42;;;;;;;0.00;0.00;;;25.30;51.40;;;;;;4905133;29;20036;-78
2023/08/12 13:18:08;;;;;;;0.03;0.03;;;25.00;51.30;;;;;;4922490;29;20076;-78
2023/08/12 13:20:34;;;;;;;0.00;0.00;;;24.90;52.30;;;;;;4922141;29;20032;-78
2023/08/12 13:23:00;;;;;;;0.00;0.00;;;24.90;51.70;;;;;;4921967;29;20077;-78
2023/08/12 13:25:31;;;;;;;0.10;0.10;;;25.00;50.00;;;;;;4922090;29;20032;-78
2023/08/12 13:27:57;;;;;;;0.00;0.00;;;25.20;49.60;;;;;;4922052;29;20510;-78
2023/08/12 13:30:23;;;;;;;0.03;0.03;;;25.30;49.60;;;;;;4904546;29;20570;-78
2023/08/12 13:32:48;;;;;;;0.10;0.10;;;25.40;49.80;;;;;;4921789;29;20063;-78
2023/08/12 13:35:14;;;;;;;0.10;0.10;;;25.70;50.10;;;;;;4921776;29;20036;-78
2023/08/12 13:37:40;;;;;;;0.10;0.10;;;26.10;49.20;;;;;;4921874;29;20028;-78
2023/08/12 13:40:06;;;;;;;0.00;0.00;;;26.30;49.00;;;;;;4921936;29;20091;-78
2023/08/12 13:42:32;;;;;;;0.00;0.00;;;26.30;49.50;;;;;;4921668;29;20482;-78
2023/08/12 13:44:57;;;;;;;0.00;0.00;;;26.10;48.90;;;;;;4904647;29;20020;-78
2023/08/12 13:47:23;;;;;;;0.10;0.10;;;25.80;48.50;;;;;;4921769;29;20087;-78
2023/08/12 13:49:49;;;;;;;0.10;0.10;;;25.80;50.30;;;;;;4921726;29;20020;-78
2023/08/12 13:52:15;;;;;;;0.10;0.10;;;26.10;51.50;;;;;;4921260;29;20039;-78
2023/08/12 13:54:40;;;;;;;0.10;0.10;;;26.40;49.40;;;;;;4904511;29;20392;-78
2023/08/12 13:57:06;;;;;;;0.00;0.00;;;26.60;48.30;;;;;;4921678;29;20031;-78
2023/08/12 13:59:32;;;;;;;0.03;0.03;;;26.60;48.80;;;;;;4903341;29;20036;-78
2023/08/12 14:01:57;;;;;;;0.00;0.00;;;26.40;48.80;;;;;;4901037;29;20373;-78
2023/08/12 14:04:23;;;;;;;0.08;0.08;;;26.30;47.40;;;;;;4916284;29;20024;-78
2023/08/12 14:06:49;;;;;;;0.00;0.00;;;26.20;49.00;;;;;;4921233;29;20024;-78
2023/08/12 14:09:17;;;;;;;0.10;0.10;;;26.20;47.40;;;;;;4921616;29;20106;-78
2023/08/12 14:11:42;;;;;;;0.00;0.00;;;26.10;47.40;;;;;;4921210;29;20076;-78
2023/08/12 14:14:08;;;;;;;0.10;0.10;;;26.20;48.50;;;;;;4921425;29;20032;-78
2023/08/12 14:16:35;;;;;;;0.08;0.08;;;26.00;47.50;;;;;;4904558;29;20028;-78
2023/08/12 14:19:00;;;;;;;0.00;0.00;;;26.00;50.40;;;;;;4921420;29;20032;-78
2023/08/12 14:21:26;;;;;;;0.00;0.00;;;26.00;48.60;;;;;;4921205;29;20063;-78
2023/08/12 14:23:52;;;;;;;0.00;0.00;;;25.90;49.10;;;;;;4904262;29;20028;-78
2023/08/12 14:26:17;;;;;;;0.00;0.00;;;25.80;47.50;;;;;;4921478;29;20031;-78
2023/08/12 14:28:43;;;;;;;0.00;0.00;;;25.80;50.00;;;;;;4921179;29;20491;-78
2023/08/12 14:31:09;;;;;;;0.05;0.05;;;25.60;49.60;;;;;;4920901;29;20104;-78
2023/08/12 14:33:36;;;;;;;0.00;0.00;;;25.60;51.00;;;;;;4921061;29;20079;-79
2023/08/12 14:36:02;;;;;;;0.10;0.10;;;25.50;49.70;;;;;;4901854;29;20040;-78
2023/08/12 14:38:28;;;;;;;0.10;0.10;;;25.50;50.60;;;;;;4902197;29;20088;-78
2023/08/12 14:40:53;;;;;;;0.10;0.10;;;25.60;50.20;;;;;;4902115;29;20032;-79
2023/08/12 14:43:19;;;;;;;0.10;0.10;;;25.60;51.20;;;;;;4904411;29;20039;-78
2023/08/12 14:45:45;;;;;;;0.10;0.10;;;25.70;50.60;;;;;;4906260;29;20057;-78
2023/08/12 14:48:11;;;;;;;0.10;0.10;;;25.70;50.50;;;;;;4905974;29;20028;-78
2023/08/12 14:50:40;;;;;;;0.10;0.10;;;25.70;49.40;;;;;;4905723;29;20031;-78
2023/08/12 14:53:05;;;;;;;0.00;0.00;;;25.80;50.70;;;;;;4904434;29;20060;-78
2023/08/12 14:55:31;;;;;;;0.00;0.00;;;25.80;49.70;;;;;;4886816;29;20028;-78
2023/08/12 14:57:57;;;;;;;0.10;0.10;;;25.90;50.00;;;;;;4905786;29;20033;-78
2023/08/12 15:00:22;;;;;;;0.10;0.10;;;26.00;51.20;;;;;;4905521;29;20032;-78
2023/08/12 15:02:48;;;;;;;0.10;0.10;;;26.10;51.00;;;;;;4907125;29;20060;-78
2023/08/12 15:05:13;;;;;;;0.10;0.10;;;26.20;49.80;;;;;;4924537;29;20036;-78
2023/08/12 15:07:39;;;;;;;0.00;0.00;;;26.00;50.80;;;;;;4907376;29;20032;-78
2023/08/12 15:10:05;;;;;;;0.10;0.10;;;25.80;50.10;;;;;;4924474;29;20024;-78
2023/08/12 15:12:30;;;;;;;0.00;0.00;;;25.70;51.40;;;;;;4907388;29;20036;-78
2023/08/12 15:14:57;;;;;;;0.00;0.00;;;25.70;51.80;;;;;;4907829;29;20033;-78
2023/08/12 15:17:22;;;;;;;0.00;0.00;;;25.70;51.20;;;;;;4907121;29;20119;-78
2023/08/12 15:19:48;;;;;;;0.00;0.00;;;25.50;52.20;;;;;;4924223;29;20048;-78
2023/08/12 15:22:14;;;;;;;0.00;0.00;;;25.30;51.10;;;;;;4924237;29;20032;-78
2023/08/12 15:24:40;;;;;;;0.03;0.03;;;25.20;51.10;;;;;;4924362;29;20025;-78
2023/08/12 15:27:06;;;;;;;0.00;0.00;;;25.20;51.20;;;;;;4923932;29;20111;-78
2023/08/12 15:29:31;;;;;;;0.03;0.03;;;25.10;51.60;;;;;;4924264;29;20021;-78
2023/08/12 15:31:57;;;;;;;0.00;0.00;;;24.80;51.60;;;;;;4923896;29;20808;-78
2023/08/12 15:34:23;;;;;;;0.00;0.00;;;24.80;52.30;;;;;;4906975;29;20118;-78
2023/08/12 15:36:51;;;;;;;0.00;0.00;;;24.80;51.90;;;;;;4923735;29;20055;-78
2023/08/12 15:39:17;;;;;;;0.10;0.10;;;25.00;51.60;;;;;;4924380;29;20052;-78
2023/08/12 15:41:43;;;;;;;0.00;0.00;;;25.00;51.30;;;;;;4924013;29;20064;-78
2023/08/12 15:44:11;;;;;;;0.00;0.00;;;25.20;51.00;;;;;;4923948;29;20032;-78
2023/08/12 15:46:39;;;;;;;0.03;0.03;;;25.30;51.90;;;;;;4923610;29;20024;-79
2023/08/12 15:49:07;;;;;;;0.10;0.10;;;25.40;51.80;;;;;;4923954;29;20084;-78
2023/08/12 15:51:34;;;;;;;0.00;0.00;;;25.30;51.30;;;;;;4923754;29;20039;-79
2023/08/12 15:53:59;;;;;;;0.10;0.10;;;25.40;51.90;;;;;;4923752;29;20029;-78
2023/08/12 15:56:25;;;;;;;0.00;0.00;;;25.30;51.80;;;;;;4923541;29;20032;-78
2023/08/12 15:58:51;;;;;;;0.00;0.00;;;25.20;52.50;;;;;;4923795;29;20079;-78
2023/08/12 16:01:19;;;;;;;0.00;0.00;;;25.00;52.10;;;;;;4908846;29;20033;-78
2023/08/12 16:03:45;;;;;;;0.00;0.00;;;24.80;53.10;;;;;;4909875;29;20079;-78
2023/08/12 16:06:11;;;;;;;0.00;0.00;;;24.80;53.80;;;;;;4904417;29;20032;-78
2023/08/12 16:08:36;;;;;;;0.00;0.00;;;24.60;54.00;;;;;;4904604;29;20080;-78
2023/08/12 16:11:02;;;;;;;0.00;0.00;;;24.40;54.10;;;;;;4904607;29;20072;-78
2023/08/12 16:13:28;;;;;;;0.00;0.00;;;24.40;54.40;;;;;;4904475;29;20029;-78
2023/08/12 16:15:54;;;;;;;0.10;0.10;;;24.50;55.30;;;;;;4904453;29;20057;-78
2023/08/12 16:18:19;;;;;;;0.05;0.05;;;24.50;54.90;;;;;;4887680;29;20492;-78
2023/08/12 16:20:45;;;;;;;0.03;0.03;;;24.50;55.00;;;;;;4887254;29;20115;-78
2023/08/12 16:23:11;;;;;;;0.00;0.00;;;24.50;55.20;;;;;;4904196;29;20032;-78
2023/08/12 16:25:36;;;;;;;0.10;0.10;;;24.70;55.20;;;;;;4904246;29;20100;-78
2023/08/12 16:28:02;;;;;;;0.10;0.10;;;24.60;56.00;;;;;;4904147;29;20111;-78
2023/08/12 16:30:28;;;;;;;0.00;0.00;;;24.50;55.80;;;;;;4886205;29;20108;-78
2023/08/12 16:32:54;;;;;;;0.00;0.00;;;24.40;56.10;;;;;;4891011;29;20029;-78
2023/08/12 16:35:20;;;;;;;0.00;0.00;;;24.20;55.90;;;;;;4905723;29;20039;-78
2023/08/12 16:37:45;;;;;;;0.00;0.00;;;24.10;56.00;;;;;;4922993;29;20465;-78
2023/08/12 16:40:11;;;;;;;0.00;0.00;;;23.90;56.60;;;;;;4911781;29;20440;-78
2023/08/12 16:42:37;;;;;;;0.00;0.00;;;23.90;56.60;;;;;;4903852;29;20033;-78
2023/08/12 16:45:04;;;;;;;0.00;0.00;;;24.00;56.50;;;;;;4904008;29;20095;-78
2023/08/12 16:47:30;;;;;;;0.00;0.00;;;24.00;56.90;;;;;;4903927;29;20017;-78
2023/08/12 16:49:56;;;;;;;0.03;0.03;;;24.20;56.30;;;;;;4903868;29;20036;-78
2023/08/12 16:52:21;;;;;;;0.00;0.00;;;24.20;56.00;;;;;;4903715;29;20096;-78
2023/08/12 16:54:47;;;;;;;0.00;0.00;;;24.10;56.80;;;;;;4899246;29;20025;-78
2023/08/12 16:57:12;;;;;;;0.00;0.00;;;24.00;56.50;;;;;;4903820;29;20389;-78
2023/08/12 16:59:38;;;;;;;0.00;0.00;;;23.90;56.70;;;;;;4903866;29;20056;-78
2023/08/12 17:02:04;;;;;;;0.00;0.00;;;23.90;56.40;;;;;;4883299;29;20075;-78
2023/08/12 17:04:30;;;;;;;0.00;0.00;;;23.80;56.90;;;;;;4918087;29;20087;-78
2023/08/12 17:06:55;;;;;;;0.05;0.05;;;23.80;56.90;;;;;;4921766;29;20020;-78
2023/08/12 17:09:21;;;;;;;0.00;0.00;;;23.80;56.50;;;;;;4922504;29;20040;-78
2023/08/12 17:11:47;;;;;;;0.10;0.10;;;23.80;56.90;;;;;;4922309;29;20024;-78
2023/08/12 17:14:12;;;;;;;0.10;0.10;;;23.90;57.90;;;;;;4922362;29;20040;-78